Search for airport 
image banner adimage banner adimage banner ad
image banner ad

0O2 - Baker

Located in Baker, United States

ICAO - 0O2, IATA -

Data provided by Airmate  

General information

Coordinates: N35°17'11" W116°4'53"
Elevation is 922 feet MSL.
Magnetic variation is 14° East
View others Airports in California

Operational data

Special qualification required
Current time UTC:
Current local time:
Weather at : KBYS - Bicycle Lake Aaf ( 50 km )
METAR: KBYS 211158Z AUTO 00000KT 10SM CLR 25/M01 A2986 RMK AO2 SLP077 T02531007 10312 20253 53006 $
View NOTAMs / SUP AIP / TFR affecting this airport [VIEW]
Communications frequencies: [VIEW]

Runways:

RWY identifierQFULength (ft)Width (ft)SurfaceLDA (ft)
15166°315750ASPH
33346°315750ASPH

Airport contact information

Address: Baker United States

Satellite view of 0O2